Time;durP1;ratioP1;P1;durP2;ratioP2;P2;SDS_P1;SDS_P2;PMS_P1;PMS_P2;Temp;Humidity;BMP_temperature;BMP_pressure;BME280_temperature;BME280_humidity;BME280_pressure;Samples;Min_cycle;Max_cycle;Signal;HPM_P1;HPM_P2
2022/04/20 00:00:42;;;;;;;5.68;2.55;;;;;;;14.36;32.34;99718.53;4984992;28;20133;-80
2022/04/20 00:03:09;;;;;;;4.90;2.38;;;;;;;14.37;32.09;99716.72;4984271;28;20096;-81
2022/04/20 00:05:35;;;;;;;3.80;2.28;;;;;;;14.37;32.64;99720.22;4988568;28;20050;-81
2022/04/20 00:08:03;;;;;;;5.07;2.58;;;;;;;14.36;32.12;99715.88;4969560;28;20418;-81
2022/04/20 00:10:30;;;;;;;3.08;2.05;;;;;;;14.38;32.54;99719.22;4986817;28;20042;-80
2022/04/20 00:12:57;;;;;;;2.45;2.05;;;;;;;14.39;32.62;99718.22;4985433;28;20113;-81
2022/04/20 00:15:24;;;;;;;2.33;1.90;;;;;;;14.39;32.92;99720.88;4987284;28;20043;-81
2022/04/20 00:17:51;;;;;;;3.72;2.20;;;;;;;14.38;32.65;99721.91;4995126;28;20047;-80
2022/04/20 00:20:18;;;;;;;5.07;2.30;;;;;;;14.39;32.69;99712.88;4989298;28;20042;-81
2022/04/20 00:22:44;;;;;;;3.42;1.90;;;;;;;14.39;32.98;99717.38;4973287;28;20053;-80
2022/04/20 00:25:11;;;;;;;5.13;2.28;;;;;;;14.39;32.92;99715.53;4987789;28;20058;-81
2022/04/20 00:27:38;;;;;;;4.68;2.47;;;;;;;14.37;33.20;99716.72;4983484;28;20501;-81
2022/04/20 00:30:08;;;;;;;4.35;1.90;;;;;;;14.33;32.83;99710.88;4987511;28;20046;-80
2022/04/20 00:32:35;;;;;;;3.05;1.98;;;;;;;14.32;32.96;99702.03;4970121;28;20046;-81
2022/04/20 00:35:02;;;;;;;3.08;2.15;;;;;;;14.31;32.70;99705.69;4984230;28;20054;-80
2022/04/20 00:37:29;;;;;;;3.25;2.30;;;;;;;14.32;32.75;99701.16;4982670;28;20046;-80
2022/04/20 00:39:55;;;;;;;4.72;2.45;;;;;;;14.30;32.89;99706.69;4986975;28;20057;-81
2022/04/20 00:42:23;;;;;;;3.25;2.10;;;;;;;14.29;32.59;99707.66;4974007;28;20052;-81
2022/04/20 00:44:50;;;;;;;4.30;2.47;;;;;;;14.26;32.33;99705.31;4969473;28;20135;-81
2022/04/20 00:47:17;;;;;;;4.53;2.40;;;;;;;14.23;32.58;99708.31;4965687;28;20061;-81
2022/04/20 00:49:46;;;;;;;3.80;2.40;;;;;;;14.21;32.95;99702.31;4949701;28;20059;-80
2022/04/20 00:52:13;;;;;;;4.18;2.70;;;;;;;14.19;32.50;99700.78;4968576;28;20051;-80
2022/04/20 00:54:40;;;;;;;4.18;2.38;;;;;;;14.17;32.72;99706.31;4951711;28;20482;-81
2022/04/20 00:57:08;;;;;;;3.47;2.50;;;;;;;14.12;32.67;99711.31;4968669;28;20051;-80
2022/04/20 00:59:36;;;;;;;3.75;2.25;;;;;;;14.07;32.83;99709.13;4953837;28;20045;-80
2022/04/20 01:02:04;;;;;;;5.45;2.55;;;;;;;14.05;33.44;99703.09;4963321;28;20065;-80
2022/04/20 01:04:33;;;;;;;3.92;2.05;;;;;;;14.06;33.64;99714.59;4947990;28;20050;-80
2022/04/20 01:07:40;;;;;;;4.17;2.67;;;;;;;14.04;33.69;99708.59;4948445;28;20054;-80
2022/04/20 01:10:16;;;;;;;3.05;2.17;;;;;;;14.04;33.14;99717.47;4998998;28;20046;-80
2022/04/20 01:12:52;;;;;;;3.95;2.40;;;;;;;14.06;33.10;99706.59;4967055;28;20050;-81
2022/04/20 01:15:19;;;;;;;5.38;2.40;;;;;;;14.03;32.88;99709.59;4968757;28;20405;-81
2022/04/20 01:17:48;;;;;;;4.40;2.47;;;;;;;13.92;32.62;99701.84;4973451;28;20050;-81
2022/04/20 01:20:38;;;;;;;3.42;2.30;;;;;;;13.87;33.03;99707.69;4991805;28;20387;-81
2022/04/20 01:23:24;;;;;;;3.17;2.17;;;;;;;13.82;32.91;99702.00;4984687;28;20050;-81
2022/04/20 01:26:17;;;;;;;4.45;2.35;;;;;;;13.79;33.29;99700.50;4975325;28;20062;-80
2022/04/20 01:28:55;;;;;;;4.00;2.15;;;;;;;13.82;33.57;99700.16;4988859;28;20550;-81
2022/04/20 01:31:41;;;;;;;4.07;2.30;;;;;;;13.79;33.65;99708.50;4972713;28;20068;-81
2022/04/20 01:34:14;;;;;;;5.40;2.60;;;;;;;13.76;33.28;99708.78;4965831;28;20054;-81
2022/04/20 01:36:41;;;;;;;3.53;2.33;;;;;;;13.74;33.30;99710.81;4967418;28;20056;-80
2022/04/20 01:39:07;;;;;;;4.72;2.55;;;;;;;13.73;33.56;99724.31;4967755;28;20042;-80
2022/04/20 01:41:34;;;;;;;5.15;2.30;;;;;;;13.69;34.15;99723.78;4946658;28;20051;-80
2022/04/20 01:44:01;;;;;;;3.38;2.55;;;;;;;13.66;34.58;99713.41;4965418;28;20047;-80
2022/04/20 01:46:39;;;;;;;4.32;2.53;;;;;;;13.63;34.32;99730.56;4947582;28;20054;-81
2022/04/20 01:53:26;;;;;;;3.47;2.35;;;;;;;13.53;34.52;99713.84;4921561;28;20097;-81
2022/04/20 01:56:18;;;;;;;2.65;1.92;;;;;;;13.53;34.28;99713.00;4960674;28;20042;-81
2022/04/20 01:59:05;;;;;;;4.88;2.50;;;;;;;13.47;33.94;99714.47;4941585;28;20108;-81
2022/04/20 02:04:41;;;;;;;5.55;2.85;;;;;;;13.43;34.96;99719.31;4998020;28;20186;-81
2022/04/20 02:07:08;;;;;;;4.88;2.20;;;;;;;13.43;34.84;99718.44;4968837;28;20057;-81
2022/04/20 02:09:41;;;;;;;3.58;2.35;;;;;;;13.38;34.52;99710.94;4966102;28;20469;-81
2022/04/20 02:12:12;;;;;;;4.90;2.47;;;;;;;13.40;34.61;99710.75;4980206;28;20054;-80
2022/04/20 02:15:03;;;;;;;3.10;2.80;;;;;;;13.40;34.69;99710.75;4978724;28;20062;-80
2022/04/20 02:18:02;;;;;;;4.00;2.10;;;;;;;13.37;35.20;99709.25;4965573;28;20137;-81
2022/04/20 02:20:52;;;;;;;4.18;2.25;;;;;;;13.35;34.81;99716.56;4939968;28;20058;-81
2022/04/20 02:23:20;;;;;;;3.83;2.53;;;;;;;13.34;35.09;99716.75;4994625;28;20192;-81
2022/04/20 02:25:48;;;;;;;3.60;2.55;;;;;;;13.33;35.11;99723.91;4967844;28;20046;-81
2022/04/20 02:28:14;;;;;;;6.43;2.70;;;;;;;13.31;35.40;99720.56;5005889;28;20042;-80
2022/04/20 02:30:41;;;;;;;3.92;2.50;;;;;;;13.28;35.71;99714.69;4992154;28;20053;-81
2022/04/20 02:33:08;;;;;;;6.53;2.72;;;;;;;13.25;35.56;99714.00;4991381;28;20037;-80
2022/04/20 02:35:36;;;;;;;3.40;2.22;;;;;;;13.25;35.72;99711.31;4974913;28;20521;-80
2022/04/20 02:38:09;;;;;;;3.25;2.03;;;;;;;13.23;35.98;99709.81;4988760;28;20405;-80
2022/04/20 02:40:39;;;;;;;2.80;2.47;;;;;;;13.18;36.15;99709.44;4969962;28;20105;-80
2022/04/20 02:43:05;;;;;;;7.72;3.03;;;;;;;13.16;35.49;99716.75;4983962;28;20054;-79
2022/04/20 02:45:32;;;;;;;3.55;2.20;;;;;;;13.12;36.17;99718.88;4972009;28;20043;-78
2022/04/20 02:48:00;;;;;;;5.18;2.90;;;;;;;13.12;36.04;99707.38;4987212;28;20075;-78
2022/04/20 02:50:28;;;;;;;4.28;2.63;;;;;;;13.10;36.28;99702.22;4970084;28;20091;-79
2022/04/20 02:52:58;;;;;;;4.82;2.30;;;;;;;13.07;36.44;99712.34;4966515;28;20042;-78
2022/04/20 02:55:25;;;;;;;4.07;2.83;;;;;;;13.06;36.30;99716.84;4975486;28;20057;-78
2022/04/20 02:57:52;;;;;;;3.83;2.47;;;;;;;13.03;36.32;99722.47;4982511;28;20089;-78
2022/04/20 03:00:20;;;;;;;2.53;2.13;;;;;;;13.02;36.61;99718.13;4935829;28;20054;-79
2022/04/20 03:02:55;;;;;;;3.63;2.55;;;;;;;13.00;36.43;99722.75;4954647;28;20069;-78
2022/04/20 03:05:22;;;;;;;5.07;2.50;;;;;;;12.98;36.39;99722.09;4955138;28;20046;-78
2022/04/20 03:07:49;;;;;;;2.85;2.35;;;;;;;12.96;36.68;99714.25;4968029;28;20050;-79
2022/04/20 03:10:17;;;;;;;2.47;2.15;;;;;;;12.95;36.60;99717.06;4975627;28;20061;-78
2022/04/20 03:12:45;;;;;;;5.22;2.60;;;;;;;12.92;36.89;99720.03;4969769;28;20048;-78
2022/04/20 03:15:11;;;;;;;3.95;2.40;;;;;;;12.90;36.56;99725.53;4988840;28;20050;-78
2022/04/20 03:17:41;;;;;;;6.13;3.03;;;;;;;12.86;36.15;99726.00;4974133;28;20046;-78
2022/04/20 03:20:10;;;;;;;3.92;2.65;;;;;;;12.86;36.75;99726.00;4965137;28;20046;-78
2022/04/20 03:22:38;;;;;;;4.20;2.58;;;;;;;12.84;36.40;99719.97;4986820;28;20042;-78
2022/04/20 03:25:05;;;;;;;4.25;2.60;;;;;;;12.81;36.54;99731.78;4989220;28;20047;-79
2022/04/20 03:27:52;;;;;;;5.35;2.53;;;;;;;12.75;36.91;99727.91;4964136;28;20074;-78
2022/04/20 03:30:20;;;;;;;5.05;2.53;;;;;;;12.74;37.08;99728.88;4986680;28;20046;-78
2022/04/20 03:32:47;;;;;;;9.85;4.70;;;;;;;12.73;37.07;99726.38;4986342;28;20189;-78
2022/04/20 03:35:15;;;;;;;19.40;11.38;;;;;;;12.70;37.02;99730.19;4985203;28;20376;-79
2022/04/20 03:37:42;;;;;;;8.20;4.07;;;;;;;12.68;37.15;99728.66;4980854;28;20469;-78
2022/04/20 03:40:09;;;;;;;3.40;2.78;;;;;;;12.67;36.69;99734.97;4985780;28;20042;-79
2022/04/20 03:42:36;;;;;;;4.20;2.85;;;;;;;12.64;37.17;99736.09;4982510;28;20052;-78
2022/04/20 03:45:03;;;;;;;5.60;3.05;;;;;;;12.63;36.87;99738.94;4987940;28;20504;-78
2022/04/20 03:47:30;;;;;;;4.78;2.80;;;;;;;12.59;36.99;99727.72;4999524;28;20125;-78
2022/04/20 03:49:57;;;;;;;3.60;2.75;;;;;;;12.58;37.32;99737.56;4972297;28;20642;-78
2022/04/20 03:52:23;;;;;;;3.03;2.45;;;;;;;12.57;37.40;99743.03;4949212;28;20129;-80
2022/04/20 03:54:51;;;;;;;3.50;2.28;;;;;;;12.55;37.18;99742.34;4984022;28;20047;-79
2022/04/20 03:57:18;;;;;;;3.33;2.83;;;;;;;12.52;37.07;99748.00;4968935;28;20070;-80
2022/04/20 03:59:46;;;;;;;3.13;2.70;;;;;;;12.44;37.12;99746.06;4967285;28;21073;-79
2022/04/20 04:02:17;;;;;;;4.78;2.53;;;;;;;12.38;37.39;99749.31;4966925;28;20042;-79
2022/04/20 04:05:05;;;;;;;4.78;2.78;;;;;;;12.33;36.90;99747.09;4908957;28;20046;-79
2022/04/20 04:07:41;;;;;;;5.32;2.60;;;;;;;12.29;37.08;99751.06;4983986;28;20046;-79
2022/04/20 04:10:10;;;;;;;3.63;2.85;;;;;;;12.24;36.62;99749.84;4987843;28;20105;-79
2022/04/20 04:12:37;;;;;;;4.70;3.00;;;;;;;12.20;36.81;99756.44;4968322;28;20050;-80
2022/04/20 04:15:05;;;;;;;4.57;2.75;;;;;;;12.17;37.00;99760.22;4971650;28;20050;-83
2022/04/20 04:17:34;;;;;;;5.88;3.00;;;;;;;12.15;37.50;99759.53;4951532;28;20067;-83
2022/04/20 04:20:01;;;;;;;6.47;3.03;;;;;;;12.13;37.05;99762.34;4938642;28;20068;-83
2022/04/20 04:22:28;;;;;;;5.47;2.95;;;;;;;12.17;36.42;99765.56;4972520;28;20105;-82
2022/04/20 04:25:24;;;;;;;3.40;2.72;;;;;;;12.02;36.62;99775.00;4915162;28;20109;-80
2022/04/20 04:27:51;;;;;;;5.47;3.20;;;;;;;12.00;37.00;99772.47;4995127;28;20038;-82
2022/04/20 04:30:20;;;;;;;3.42;2.90;;;;;;;11.98;36.54;99768.28;4983871;28;20116;-84
2022/04/20 04:33:14;;;;;;;4.03;3.28;;;;;;;11.86;36.68;99765.81;4926140;28;20050;-83
2022/04/20 04:35:41;;;;;;;5.15;2.63;;;;;;;11.82;37.04;99764.41;4985250;28;20043;-83
2022/04/20 04:38:11;;;;;;;13.05;3.33;;;;;;;11.85;36.99;99752.63;4980858;28;20453;-83
2022/04/20 04:40:38;;;;;;;4.80;2.60;;;;;;;11.76;36.96;99753.53;4990775;28;20148;-83
2022/04/20 04:43:06;;;;;;;4.43;2.85;;;;;;;11.69;37.31;99750.59;4986588;28;20137;-84
2022/04/20 04:48:42;;;;;;;4.25;2.85;;;;;;;11.65;37.50;99763.34;4955773;28;20056;-83
2022/04/20 04:51:14;;;;;;;6.20;2.97;;;;;;;11.63;37.44;99748.53;4926122;28;20066;-83
2022/04/20 04:53:48;;;;;;;3.03;2.80;;;;;;;11.57;37.87;99757.06;4983511;28;20042;-84
2022/04/20 04:56:26;;;;;;;7.05;3.13;;;;;;;11.52;37.75;99758.34;4936469;28;20051;-83
2022/04/20 04:58:53;;;;;;;4.30;2.90;;;;;;;11.56;37.55;99764.19;4999797;28;20038;-83
2022/04/20 05:01:20;;;;;;;3.45;2.90;;;;;;;11.52;37.59;99757.47;4985251;28;20043;-83
2022/04/20 05:03:47;;;;;;;5.57;3.20;;;;;;;11.52;37.88;99757.47;4985315;28;20079;-83
2022/04/20 05:06:16;;;;;;;4.57;2.80;;;;;;;11.52;37.96;99754.81;5002137;28;20429;-83
2022/04/20 05:09:09;;;;;;;4.75;2.55;;;;;;;11.50;37.98;99754.16;4972906;28;20048;-83
2022/04/20 05:11:39;;;;;;;5.30;3.35;;;;;;;11.44;37.83;99760.84;4969577;28;20096;-83
2022/04/20 05:14:09;;;;;;;5.55;2.88;;;;;;;11.34;38.44;99765.34;4964894;28;20055;-83
2022/04/20 05:16:39;;;;;;;6.05;2.80;;;;;;;11.37;38.49;99759.78;4951506;28;20582;-83
2022/04/20 05:19:09;;;;;;;4.65;2.75;;;;;;;11.43;38.28;99764.50;4969327;28;20053;-83
2022/04/20 05:21:36;;;;;;;5.63;3.10;;;;;;;11.42;38.26;99760.19;4951735;28;20050;-83
2022/04/20 05:24:04;;;;;;;5.88;2.90;;;;;;;11.41;38.07;99769.13;4963053;28;20142;-83
2022/04/20 05:26:34;;;;;;;6.75;3.38;;;;;;;11.43;37.87;99761.84;4979144;28;20046;-83
2022/04/20 05:29:02;;;;;;;5.32;3.20;;;;;;;11.39;38.38;99760.44;4948664;28;20046;-83
2022/04/20 05:31:34;;;;;;;5.15;3.47;;;;;;;11.34;38.44;99760.03;4962576;28;20053;-83
2022/04/20 05:34:03;;;;;;;4.15;2.80;;;;;;;11.32;38.39;99756.69;4983960;28;20057;-83
2022/04/20 05:41:39;;;;;;;4.18;2.88;;;;;;;11.37;38.48;99762.44;4963027;28;20077;-83
2022/04/20 05:42:04;;;;;;;8.35;3.42;;;;;;;11.27;39.01;99767.75;4969065;28;20046;-83
2022/04/20 05:44:31;;;;;;;8.57;3.40;;;;;;;11.30;38.95;99758.66;4968810;28;20445;-84
2022/04/20 05:46:58;;;;;;;4.70;3.20;;;;;;;11.31;38.47;99755.00;4980476;28;20065;-83
2022/04/20 05:49:26;;;;;;;5.90;3.05;;;;;;;11.23;38.93;99757.56;4966169;28;20505;-83
2022/04/20 05:51:53;;;;;;;3.63;3.13;;;;;;;11.17;39.00;99760.75;4965657;28;20046;-84
2022/04/20 05:54:23;;;;;;;7.03;3.63;;;;;;;11.20;38.88;99749.88;4968214;28;20489;-83
2022/04/20 05:56:51;;;;;;;9.85;3.22;;;;;;;11.20;39.21;99760.50;4985714;28;20053;-83
2022/04/20 05:59:17;;;;;;;5.20;3.83;;;;;;;11.26;39.35;99762.56;4963308;28;20052;-84
2022/04/20 06:01:44;;;;;;;5.32;2.95;;;;;;;11.18;39.61;99760.63;4969551;28;20042;-83
2022/04/20 06:04:16;;;;;;;6.03;3.30;;;;;;;11.24;39.20;99759.22;4985418;28;20046;-83
2022/04/20 06:07:05;;;;;;;4.30;3.45;;;;;;;11.23;39.79;99762.88;4997788;28;20049;-83
2022/04/20 06:09:42;;;;;;;6.85;3.42;;;;;;;11.25;39.82;99758.25;4919628;28;20154;-83
2022/04/20 06:12:39;;;;;;;9.98;3.40;;;;;;;11.25;39.74;99764.41;4957509;28;20490;-83
2022/04/20 06:15:19;;;;;;;4.35;3.15;;;;;;;11.11;40.27;99751.53;4983110;28;20069;-83
2022/04/20 06:18:04;;;;;;;5.05;4.03;;;;;;;11.13;40.53;99749.59;4978693;28;20518;-83
2022/04/20 06:20:31;;;;;;;3.47;3.10;;;;;;;11.25;40.29;99755.59;4981720;28;20046;-83
2022/04/20 06:23:31;;;;;;;6.82;3.33;;;;;;;11.21;40.29;99759.50;4943957;28;20520;-83
2022/04/20 06:26:07;;;;;;;5.85;3.55;;;;;;;11.28;40.29;99755.31;4998342;28;20482;-83
2022/04/20 06:28:52;;;;;;;5.88;3.53;;;;;;;11.30;40.87;99751.53;4998734;28;20061;-83
2022/04/20 06:31:39;;;;;;;7.70;2.90;;;;;;;11.18;41.32;99747.34;4978276;28;20050;-83
2022/04/20 06:34:28;;;;;;;9.02;3.60;;;;;;;11.13;41.63;99746.94;4948331;28;20134;-84
2022/04/20 06:37:18;;;;;;;7.53;3.45;;;;;;;10.82;42.65;99749.72;4980671;28;20050;-83
2022/04/20 06:39:56;;;;;;;6.72;3.65;;;;;;;10.98;42.39;99745.69;4989415;28;20037;-84
2022/04/20 06:42:41;;;;;;;5.53;3.28;;;;;;;11.01;42.49;99748.03;4984107;28;20183;-83
2022/04/20 06:45:26;;;;;;;8.27;3.75;;;;;;;11.00;42.47;99744.56;4978467;28;20410;-84
2022/04/20 06:48:12;;;;;;;4.18;3.38;;;;;;;11.02;42.45;99747.09;4951902;28;20115;-83
2022/04/20 06:50:43;;;;;;;4.47;3.85;;;;;;;10.85;42.61;99745.97;4967507;28;20052;-83
2022/04/20 06:59:04;;;;;;;5.15;3.67;;;;;;;11.25;42.34;99751.13;4911172;28;20042;-81
2022/04/20 07:01:53;;;;;;;5.43;3.85;;;;;;;11.21;42.17;99748.88;4966975;28;20050;-81
2022/04/20 07:04:23;;;;;;;6.05;4.05;;;;;;;11.32;42.13;99748.69;4968512;28;20124;-81
2022/04/20 07:07:16;;;;;;;6.80;3.83;;;;;;;11.38;42.06;99739.34;4960579;28;20048;-81
2022/04/20 07:10:04;;;;;;;6.38;4.30;;;;;;;11.38;42.67;99742.84;4922773;28;20663;-81
2022/04/20 07:12:39;;;;;;;4.75;3.67;;;;;;;11.45;41.92;99746.59;4983982;28;20050;-81
2022/04/20 07:15:07;;;;;;;5.93;4.20;;;;;;;11.37;42.34;99738.50;4989836;28;20061;-81
2022/04/20 07:17:33;;;;;;;6.93;4.10;;;;;;;11.46;42.27;99732.31;4971160;28;20042;-82
2022/04/20 07:20:23;;;;;;;5.97;4.20;;;;;;;11.52;42.60;99736.22;4915523;28;20054;-82
2022/04/20 07:23:02;;;;;;;5.45;4.72;;;;;;;11.37;42.12;99735.84;4968512;28;20750;-81
2022/04/20 07:25:36;;;;;;;5.60;4.43;;;;;;;11.38;42.37;99740.19;4969216;28;20050;-81
2022/04/20 07:28:14;;;;;;;5.53;4.22;;;;;;;11.29;43.59;99733.88;4934874;28;20137;-83
2022/04/20 07:31:04;;;;;;;5.57;4.72;;;;;;;11.52;42.95;99734.41;4964533;28;20494;-83
2022/04/20 07:33:50;;;;;;;8.82;4.78;;;;;;;11.57;42.24;99747.25;4984462;28;20042;-84
2022/04/20 07:36:35;;;;;;;6.43;4.95;;;;;;;11.57;41.91;99739.28;4979399;28;20050;-83
2022/04/20 07:39:23;;;;;;;5.72;4.03;;;;;;;11.60;41.97;99741.66;4984880;28;20042;-83
2022/04/20 07:42:10;;;;;;;5.18;4.22;;;;;;;11.67;42.04;99758.69;4969683;28;20047;-83
2022/04/20 07:45:03;;;;;;;5.63;3.88;;;;;;;11.74;42.00;99765.13;4961419;28;20499;-89
2022/04/20 07:47:45;;;;;;;5.88;3.55;;;;;;;11.49;41.92;99765.75;4959949;28;20397;-89
2022/04/20 07:50:32;;;;;;;4.38;3.15;;;;;;;11.60;41.09;99762.94;4941916;28;20058;-84
2022/04/20 07:53:09;;;;;;;4.38;3.38;;;;;;;11.61;41.01;99750.47;4955009;28;20062;-84
2022/04/20 07:55:54;;;;;;;4.35;3.45;;;;;;;11.59;40.75;99760.41;4962328;28;20057;-89
2022/04/20 07:58:33;;;;;;;6.38;3.30;;;;;;;11.48;41.05;99753.44;4986265;28;20042;-88
2022/04/20 08:01:19;;;;;;;5.03;3.30;;;;;;;11.42;40.69;99749.56;4983700;28;20417;-87
2022/04/20 08:03:52;;;;;;;5.75;3.10;;;;;;;11.67;40.89;99741.91;4983906;28;20092;-89
2022/04/20 08:06:27;;;;;;;4.75;2.92;;;;;;;11.78;40.76;99752.38;4948742;28;20055;-89
2022/04/20 08:08:57;;;;;;;4.30;2.97;;;;;;;11.65;39.72;99758.03;4954276;28;20039;-89
2022/04/20 08:11:24;;;;;;;2.80;2.50;;;;;;;11.71;39.41;99765.41;4939776;28;20418;-88
2022/04/20 08:14:09;;;;;;;3.38;2.53;;;;;;;11.54;38.37;99768.00;4977840;28;20053;-89
2022/04/20 08:16:52;;;;;;;4.50;2.90;;;;;;;11.60;38.57;99754.97;4927363;28;20170;-88
2022/04/20 08:19:39;;;;;;;2.60;2.15;;;;;;;11.64;38.44;99755.50;4957357;28;20129;-89
2022/04/20 08:22:22;;;;;;;3.10;2.80;;;;;;;11.61;38.71;99750.47;4940693;28;20058;-87
2022/04/20 08:24:49;;;;;;;6.78;2.90;;;;;;;11.58;37.73;99756.94;4971820;28;20121;-88
2022/04/20 08:27:16;;;;;;;2.72;2.53;;;;;;;11.68;38.60;99748.94;4983933;28;20046;-89
2022/04/20 08:29:44;;;;;;;4.32;2.80;;;;;;;11.81;37.44;99753.91;4972440;28;20093;-86
2022/04/20 08:32:11;;;;;;;2.95;2.45;;;;;;;11.75;37.09;99750.00;4987154;28;20134;-89
2022/04/20 08:34:38;;;;;;;3.10;2.65;;;;;;;11.83;37.32;99755.44;5003074;28;20446;-90
2022/04/20 08:37:28;;;;;;;2.80;2.35;;;;;;;11.58;36.11;99764.06;4919654;28;20920;-89
2022/04/20 08:39:55;;;;;;;4.47;2.53;;;;;;;11.66;36.94;99757.03;4984490;28;20047;-90
2022/04/20 08:42:22;;;;;;;3.35;2.30;;;;;;;11.61;36.94;99767.28;4975293;28;20050;-89
2022/04/20 08:44:50;;;;;;;2.65;2.45;;;;;;;11.74;36.45;99745.66;4995292;28;20382;-90
2022/04/20 08:47:22;;;;;;;3.97;2.50;;;;;;;11.71;36.23;99753.94;4987943;28;20042;-88
2022/04/20 08:49:49;;;;;;;3.60;2.25;;;;;;;11.81;36.27;99746.78;4959031;28;20770;-88
2022/04/20 08:55:13;;;;;;;5.13;2.65;;;;;;;11.77;34.82;99766.66;4951317;28;20049;-87
2022/04/20 08:57:42;;;;;;;3.10;2.40;;;;;;;11.82;34.53;99747.59;4987850;28;20039;-90
2022/04/20 09:00:23;;;;;;;6.28;2.78;;;;;;;11.75;34.18;99760.63;4987445;28;20128;-89
2022/04/20 09:02:56;;;;;;;5.05;2.53;;;;;;;11.80;35.05;99742.41;4967206;28;20053;-89
2022/04/20 09:05:29;;;;;;;;;;;;;;;11.63;36.26;99743.19;4985468;28;20096;-89
2022/04/20 09:07:57;;;;;;;4.13;2.78;;;;;;;11.79;35.90;99748.72;4980403;28;19926;-85
2022/04/20 09:10:51;;;;;;;3.95;2.85;;;;;;;11.94;35.92;99754.44;4909402;28;20047;-85
2022/04/20 09:13:31;;;;;;;3.50;2.50;;;;;;;11.90;36.35;99737.94;4981617;28;20043;-84
2022/04/20 09:16:10;;;;;;;5.30;3.15;;;;;;;11.83;35.62;99746.59;4959429;28;20050;-84
2022/04/20 09:18:39;;;;;;;4.15;3.17;;;;;;;11.99;36.39;99740.72;4982266;28;20101;-85
2022/04/20 09:21:11;;;;;;;4.90;3.20;;;;;;;11.89;36.77;99728.28;4964129;28;20742;-84
2022/04/20 09:23:39;;;;;;;3.22;2.92;;;;;;;12.03;36.56;99755.38;4982863;28;20090;-84
2022/04/20 09:26:11;;;;;;;4.75;3.38;;;;;;;12.07;35.16;99732.81;4968090;28;20552;-84
2022/04/20 09:28:40;;;;;;;6.68;3.85;;;;;;;11.98;35.99;99736.34;4966578;28;20564;-84
2022/04/20 09:31:09;;;;;;;3.33;2.90;;;;;;;11.97;35.66;99732.03;4968321;28;20823;-85
2022/04/20 09:33:49;;;;;;;4.90;3.42;;;;;;;11.81;36.37;99732.63;4960351;28;20126;-84
2022/04/20 09:36:45;;;;;;;4.50;3.17;;;;;;;11.81;37.48;99725.50;4983145;28;20520;-84
2022/04/20 09:39:13;;;;;;;3.70;3.10;;;;;;;11.83;36.69;99750.13;4933556;28;20046;-85
2022/04/20 09:41:58;;;;;;;4.45;3.38;;;;;;;11.82;37.04;99745.78;4985808;28;20056;-85
2022/04/20 09:44:26;;;;;;;3.88;3.42;;;;;;;12.06;35.95;99733.78;4950441;28;20382;-84
2022/04/20 09:50:01;;;;;;;4.22;3.17;;;;;;;12.05;36.31;99732.13;4961332;28;20359;-85
2022/04/20 09:52:41;;;;;;;6.72;3.65;;;;;;;12.03;36.32;99720.78;4968631;28;20038;-85
2022/04/20 09:55:18;;;;;;;5.22;3.30;;;;;;;12.10;35.14;99719.22;4927678;28;20409;-85
2022/04/20 09:57:44;;;;;;;3.42;2.70;;;;;;;12.12;36.65;99703.94;4981747;28;20068;-84
2022/04/20 10:00:14;;;;;;;5.03;3.38;;;;;;;12.22;36.82;99698.56;4971898;28;20042;-85
2022/04/20 10:02:52;;;;;;;5.10;3.25;;;;;;;12.16;36.67;99703.50;4980988;28;20062;-84
2022/04/20 10:05:22;;;;;;;8.65;3.65;;;;;;;12.31;36.80;99722.47;4969414;28;20133;-85
2022/04/20 10:07:58;;;;;;;3.55;3.20;;;;;;;12.30;35.92;99704.81;4999849;28;20109;-85
2022/04/20 10:10:34;;;;;;;4.25;2.95;;;;;;;12.24;35.59;99697.44;4999126;28;20069;-85
2022/04/20 10:13:03;;;;;;;5.00;3.38;;;;;;;12.28;35.55;99706.78;4973355;28;20053;-85
2022/04/20 10:18:18;;;;;;;3.58;2.53;;;;;;;12.05;35.22;99703.69;4960241;28;20046;-85
2022/04/20 10:20:47;;;;;;;3.45;2.83;;;;;;;12.18;34.75;99684.69;4957474;28;20141;-85
2022/04/20 10:23:18;;;;;;;4.38;2.92;;;;;;;12.19;34.95;99683.72;4962749;28;20455;-85
2022/04/20 10:25:45;;;;;;;4.63;3.05;;;;;;;12.24;34.91;99680.63;4968888;28;20121;-85
2022/04/20 10:28:21;;;;;;;4.45;2.78;;;;;;;12.28;35.24;99682.81;4949465;28;20043;-85
2022/04/20 10:31:15;;;;;;;4.43;2.92;;;;;;;12.21;34.62;99670.25;4974309;28;20046;-84
2022/04/20 10:33:43;;;;;;;4.13;2.83;;;;;;;12.37;35.58;99673.09;4973270;28;20052;-85
2022/04/20 10:36:59;;;;;;;7.28;3.78;;;;;;;12.41;35.27;99679.78;4923383;28;20050;-85
2022/04/20 10:39:29;;;;;;;4.32;2.85;;;;;;;12.34;35.96;99686.72;4963753;28;20130;-84
2022/04/20 10:42:10;;;;;;;8.98;3.22;;;;;;;12.48;35.39;99664.03;4975173;28;20042;-84
2022/04/20 10:45:07;;;;;;;3.90;2.70;;;;;;;12.36;35.54;99650.97;5002225;28;20042;-84
2022/04/20 10:47:45;;;;;;;3.63;3.15;;;;;;;12.47;35.12;99665.88;4954521;28;20045;-84
2022/04/20 10:50:22;;;;;;;6.35;4.65;;;;;;;12.50;34.74;99664.72;4980767;28;20414;-84
2022/04/20 10:52:58;;;;;;;5.63;3.08;;;;;;;12.52;35.24;99655.59;4966729;28;20109;-84
2022/04/20 10:55:35;;;;;;;5.05;3.75;;;;;;;12.57;35.04;99655.97;4950535;28;20399;-84
2022/04/20 10:58:20;;;;;;;5.10;3.40;;;;;;;12.53;34.77;99653.78;4972917;28;20169;-84
2022/04/20 11:00:47;;;;;;;3.58;3.00;;;;;;;12.64;34.60;99650.84;4982646;28;20044;-85
2022/04/20 11:03:15;;;;;;;3.15;2.65;;;;;;;12.59;35.03;99646.00;4977334;28;20545;-84
2022/04/20 11:05:53;;;;;;;6.80;3.17;;;;;;;12.48;34.47;99666.72;4969947;28;20049;-85
2022/04/20 11:08:24;;;;;;;4.30;2.95;;;;;;;12.67;34.00;99653.25;4983436;28;20078;-85
2022/04/20 11:19:52;;;;;;;3.47;2.58;;;;;;;12.68;34.52;99628.25;4967208;28;20128;-85
2022/04/20 11:22:25;;;;;;;4.75;2.85;;;;;;;12.68;34.60;99640.75;4952967;28;20133;-84
2022/04/20 11:25:02;;;;;;;4.00;3.20;;;;;;;12.71;33.55;99617.28;5003333;28;20054;-85
2022/04/20 11:27:33;;;;;;;5.00;2.97;;;;;;;12.68;33.98;99627.44;4982390;28;20050;-85
2022/04/20 11:30:01;;;;;;;2.88;2.35;;;;;;;12.75;34.38;99617.84;4952471;28;20442;-85
2022/04/20 11:32:30;;;;;;;4.55;3.20;;;;;;;12.92;35.07;99627.59;4986561;28;20042;-85
2022/04/20 11:35:11;;;;;;;3.83;3.20;;;;;;;12.82;34.38;99621.53;4967546;28;20054;-85
2022/04/20 11:37:39;;;;;;;3.05;2.75;;;;;;;12.87;34.06;99613.06;4983442;28;20046;-85
2022/04/20 11:40:13;;;;;;;5.20;3.50;;;;;;;12.92;33.70;99616.09;4984281;28;20042;-85
2022/04/20 11:42:41;;;;;;;2.97;2.60;;;;;;;12.89;34.38;99603.94;4963975;28;20046;-88
2022/04/20 11:45:08;;;;;;;7.90;3.55;;;;;;;12.93;34.11;99604.47;4988589;28;20039;-89
2022/04/20 11:47:40;;;;;;;4.05;2.63;;;;;;;12.93;33.93;99593.81;5001489;28;20053;-89
2022/04/20 11:50:12;;;;;;;4.63;2.95;;;;;;;13.04;33.64;99594.34;4971930;28;20050;-88
2022/04/20 11:52:58;;;;;;;3.60;3.00;;;;;;;12.98;34.43;99592.34;4983025;28;20050;-89
2022/04/20 11:55:46;;;;;;;4.47;3.00;;;;;;;13.08;34.38;99594.91;4898639;28;20061;-88
2022/04/20 11:58:14;;;;;;;3.90;2.90;;;;;;;13.11;34.21;99585.75;4984491;28;20073;-89
2022/04/20 12:00:41;;;;;;;2.88;2.53;;;;;;;13.11;34.27;99572.41;4966401;28;20077;-88
2022/04/20 12:03:08;;;;;;;4.18;2.72;;;;;;;13.15;34.04;99590.63;4953892;28;20494;-88
2022/04/20 12:05:35;;;;;;;5.80;3.33;;;;;;;13.07;32.76;99597.72;4968891;28;20042;-89
2022/04/20 12:08:01;;;;;;;4.35;3.10;;;;;;;13.16;33.45;99576.28;4987644;28;20120;-85
2022/04/20 12:10:32;;;;;;;3.10;2.72;;;;;;;13.28;33.13;99571.53;4986242;28;20050;-88
2022/04/20 12:13:02;;;;;;;4.82;3.28;;;;;;;13.18;32.28;99566.28;4973198;28;20124;-88
2022/04/20 12:15:29;;;;;;;3.92;3.22;;;;;;;13.19;33.27;99562.63;4984264;28;20046;-89
2022/04/20 12:18:01;;;;;;;4.05;2.42;;;;;;;13.24;33.24;99567.47;4986602;28;20405;-89
2022/04/20 12:20:27;;;;;;;5.38;3.05;;;;;;;13.27;33.72;99569.03;4987999;28;20386;-89
2022/04/20 12:23:05;;;;;;;5.45;2.42;;;;;;;13.23;34.31;99561.31;4985798;28;20693;-89
2022/04/20 12:25:31;;;;;;;4.15;2.92;;;;;;;13.33;33.50;99561.25;4969600;28;20037;-89
2022/04/20 12:28:35;;;;;;;2.65;2.38;;;;;;;13.38;33.20;99558.06;4984193;28;20124;-90
2022/04/20 12:30:45;;;;;;;4.15;3.10;;;;;;;13.39;33.42;99546.41;4985376;28;20042;-88
2022/04/20 12:33:22;;;;;;;5.88;2.80;;;;;;;13.41;33.00;99549.75;4970690;28;20541;-89
2022/04/20 12:36:08;;;;;;;2.50;2.13;;;;;;;13.37;33.11;99549.22;4919616;28;20093;-89
2022/04/20 12:38:51;;;;;;;6.05;3.63;;;;;;;13.55;32.98;99542.97;4924642;28;20042;-84
2022/04/20 12:41:38;;;;;;;4.47;3.45;;;;;;;13.55;34.28;99541.13;4954846;28;20050;-84